Data for 10/20/2015

Time Sea-Level Adjusted Pressure Absolute Pressure Temperature Relative Humidity Dew Point   
(mb) (inHg) (mb) (inHg) (C) (F) (%) (C) (F)
00:05 1016 30 846 24.98 8.5 47.3 91 7.1 44.9
00:10 1016 30 846 24.98 8.5 47.3 91 7.2 44.9
00:15 1016 30 846 24.98 8.5 47.3 92 7.2 45
00:20 1016 30 846 24.98 8.5 47.3 92 7.2 45
00:25 1016 30 846 24.98 8.5 47.3 92 7.2 45
00:30 1016 30 846 24.98 8.5 47.3 92 7.2 45
00:35 1016 30 846 24.98 8.5 47.3 92 7.2 45
00:40 1016 30 846 24.98 8.5 47.2 92 7.2 45
00:45 1016 30 846 24.98 8.5 47.3 92 7.2 45
00:50 1017 30.03 846 24.98 8.4 47.2 92 7.2 44.9
00:55 1017 30.03 846 24.98 8.4 47.1 92 7.1 44.8
01:00 1017 30.03 846 24.98 8.4 47.1 92 7.1 44.8
01:05 1017 30.03 846 24.98 8.3 47 91 7 44.5
01:10 1017 30.03 846 24.98 8.3 46.9 91 6.8 44.3
01:15 1017 30.03 846 24.98 8.3 46.9 91 6.8 44.2
01:20 1017 30.03 846 24.98 8.3 46.9 90 6.8 44.2
01:25 1017 30.03 846 24.98 8.3 46.9 90 6.7 44.1
01:30 1017 30.03 846 24.98 8.3 46.9 90 6.7 44
01:35 1017 30.03 846 24.98 8.3 47 89 6.7 44
01:40 1017 30.03 846 24.98 8.3 47 89 6.7 44
01:45 1017 30.03 846 24.98 8.4 47.1 89 6.7 44
01:50 1017 30.03 846 24.98 8.3 47 89 6.6 43.9
01:55 1017 30.03 846 24.98 8.3 47 89 6.6 43.8
02:00 1017 30.03 846 24.98 8.3 46.9 89 6.6 43.8
02:05 1017 30.03 846 24.98 8.1 46.7 88 6.3 43.4
02:10 1017 30.03 846 24.98 8.1 46.5 88 6.2 43.1
02:15 1017 30.03 846 24.98 8.1 46.5 88 6.2 43.2
02:20 1017 30.03 846 24.98 8 46.5 87 6 42.9
02:25 1017 30.03 846 24.98 8.1 46.5 86 5.8 42.5
02:30 1017 30.03 846 24.98 8.1 46.6 86 5.9 42.7
02:35 1017 30.03 846 24.98 8.1 46.5 87 6.1 42.9
02:40 1017 30.03 846 24.98 8 46.5 87 6 42.8
02:45 1017 30.03 846 24.98 8 46.4 87 6 42.8
02:50 1017 30.03 846 24.98 8 46.4 88 6.2 43.1
02:55 1017 30.03 846 24.98 7.9 46.2 89 6.2 43.2
03:00 1017 30.03 846 24.98 7.9 46.2 85 5.6 42.1
03:05 1017 30.03 846 24.98 8.1 46.6 84 5.6 42.1
03:10 1017 30.03 846 24.98 8.1 46.6 85 5.8 42.4
03:15 1017 30.03 846 24.98 8.1 46.6 85 5.8 42.4
03:20 1017 30.03 846 24.98 8 46.5 86 5.8 42.5
03:25 1017 30.03 846 24.98 8 46.5 87 5.9 42.7
03:30 1017 30.03 846 24.98 8 46.4 86 5.8 42.5
03:35 1017 30.03 846 24.98 8 46.4 85 5.7 42.2
03:40 1017 30.03 846 24.98 8.1 46.5 86 5.9 42.5
03:45 1017 30.03 847 25.01 8.1 46.5 86 5.8 42.5
03:50 1017 30.03 847 25.01 8.1 46.5 86 5.8 42.5
03:55 1017 30.03 847 25.01 8 46.4 86 5.8 42.5
04:00 1017 30.03 847 25.01 8 46.3 85 5.6 42.1
04:05 1017 30.03 847 25.01 8 46.3 85 5.7 42.2
04:10 1017 30.03 847 25.01 8 46.3 85 5.7 42.2
04:15 1018 30.06 847 25.01 8.1 46.5 84 5.6 42
04:20 1018 30.06 847 25.01 8.2 46.8 83 5.6 42.1
04:25 1018 30.06 847 25.01 8.2 46.8 84 5.8 42.4
04:30 1018 30.06 847 25.01 8.2 46.8 85 5.8 42.5
04:35 1018 30.06 847 25.01 8.2 46.7 86 6 42.7
04:40 1018 30.06 847 25.01 8.1 46.7 87 6.1 43
04:45 1018 30.06 847 25.01 8.1 46.5 88 6.2 43.1
04:50 1018 30.06 847 25.01 8 46.4 88 6.1 42.9
04:55 1018 30.06 847 25.01 8 46.3 88 6.1 43
05:00 1018 30.06 847 25.01 8 46.3 88 6.1 43
05:05 1018 30.06 847 25.01 8 46.3 88 6.2 43.1
05:10 1018 30.06 847 25.01 7.9 46.3 88 6.1 43
05:15 1018 30.06 847 25.01 7.9 46.2 88 6 42.8
05:20 1018 30.06 847 25.01 7.9 46.2 87 5.8 42.4
05:25 1018 30.06 847 25.01 8 46.3 86 5.8 42.4
05:30 1018 30.06 848 25.04 8 46.5 85 5.7 42.3
05:35 1018 30.06 848 25.04 8.1 46.5 87 6 42.8
05:40 1018 30.06 848 25.04 8.1 46.6 87 6.1 43
05:45 1018 30.06 848 25.04 8.1 46.6 87 6.1 43
05:50 1018 30.06 848 25.04 8.2 46.7 87 6.2 43.1
05:55 1018 30.06 848 25.04 8.1 46.5 88 6.2 43.2
06:00 1019 30.09 848 25.04 8 46.5 87 6.1 43
06:05 1019 30.09 848 25.04 8 46.4 88 6.1 42.9
06:10 1019 30.09 848 25.04 8.1 46.5 86 5.9 42.6
06:15 1019 30.09 848 25.04 8.1 46.6 85 5.7 42.2
06:20 1019 30.09 848 25.04 8.2 46.8 84 5.7 42.3
06:25 1019 30.09 848 25.04 8.3 46.9 84 5.8 42.4
06:30 1019 30.09 848 25.04 8.2 46.8 83 5.6 42
06:35 1019 30.09 848 25.04 8.2 46.7 83 5.5 41.9
06:40 1019 30.09 848 25.04 8.1 46.5 82 5.3 41.5
06:45 1019 30.09 848 25.04 8.2 46.7 82 5.3 41.6
06:50 1019 30.09 848 25.04 8.2 46.8 81 5.2 41.3
06:55 1019 30.09 848 25.04 8.2 46.8 81 5.1 41.1
07:00 1019 30.09 848 25.04 8.2 46.7 80 5 41
07:05 1019 30.09 848 25.04 8.2 46.7 80 4.9 40.8
07:10 1019 30.09 848 25.04 8.2 46.8 80 4.9 40.8
07:15 1019 30.09 848 25.04 8.2 46.8 79 4.9 40.8
07:20 1019 30.09 849 25.07 8.3 46.9 78 4.7 40.4
07:25 1019 30.09 849 25.07 8.3 47 77 4.5 40.2
07:30 1020 30.12 849 25.07 8.3 47 77 4.5 40.2
07:35 1020 30.12 849 25.07 8.4 47.1 76 4.5 40.1
07:40 1020 30.12 849 25.07 8.5 47.3 75 4.3 39.8
07:45 1020 30.12 849 25.07 8.6 47.5 74 4.1 39.5
07:50 1020 30.12 849 25.07 8.7 47.6 73 4.1 39.3
07:55 1020 30.12 849 25.07 8.6 47.6 74 4.3 39.8
08:00 1020 30.12 849 25.07 8.6 47.5 74 4.3 39.7
08:05 1020 30.12 849 25.07 8.6 47.5 74 4.3 39.7
08:10 1020 30.12 849 25.07 8.6 47.5 74 4.3 39.7
08:15 1020 30.12 850 25.1 8.6 47.5 75 4.4 39.8
08:20 1020 30.12 850 25.1 8.6 47.5 75 4.4 39.9
08:25 1020 30.12 850 25.1 8.6 47.4 75 4.4 39.9
08:30 1021 30.15 850 25.1 8.5 47.4 76 4.5 40.1
08:35 1021 30.15 850 25.1 8.5 47.4 76 4.5 40.1
08:40 1021 30.15 850 25.1 8.5 47.3 75 4.3 39.8
08:45 1021 30.15 850 25.1 8.4 47.1 76 4.4 39.9
08:50 1021 30.15 850 25.1 8.4 47.1 76 4.5 40
08:55 1021 30.15 850 25.1 8.5 47.3 75 4.4 40
09:00 1021 30.15 850 25.1 8.5 47.4 75 4.4 39.9
09:05 1021 30.15 850 25.1 8.6 47.4 74 4.3 39.7
09:10 1021 30.15 850 25.1 8.6 47.4 75 4.4 39.8
09:15 1021 30.15 850 25.1 8.6 47.5 74 4.4 39.8
09:20 1021 30.15 850 25.1 8.7 47.7 75 4.6 40.3
09:25 1021 30.15 850 25.1 8.7 47.7 75 4.5 40
09:30 1021 30.15 850 25.1 8.7 47.6 76 4.6 40.4
09:35 1021 30.15 851 25.13 8.8 47.8 75 4.6 40.2
09:40 1021 30.15 851 25.13 8.9 48 74 4.5 40.1
09:45 1021 30.15 851 25.13 8.8 47.9 75 4.6 40.3
09:50 1021 30.15 851 25.13 8.8 47.9 76 4.9 40.7
09:55 1022 30.18 851 25.13 8.9 48 74 4.5 40.1
10:00 1022 30.18 851 25.13 8.9 48.1 72 4.2 39.6
10:05 1022 30.18 851 25.13 9 48.2 70 3.9 39.1
10:10 1022 30.18 851 25.13 9.1 48.3 74 4.6 40.3
10:15 1022 30.18 851 25.13 9.2 48.5 72 4.4 40
10:20 1022 30.18 851 25.13 9.2 48.6 70 4 39.3
10:25 1022 30.18 851 25.13 9.2 48.5 71 4.3 39.7
10:30 1022 30.18 851 25.13 9.3 48.7 73 4.7 40.4
10:35 1022 30.18 851 25.13 9.3 48.7 69 3.8 38.9
10:40 1022 30.18 851 25.13 9.3 48.7 70 4.1 39.4
10:45 1022 30.18 851 25.13 9.3 48.7 71 4.3 39.7
10:50 1022 30.18 851 25.13 9.3 48.7 70 4.2 39.6
10:55 1022 30.18 851 25.13 9.3 48.8 69 4 39.3
11:00 1022 30.18 851 25.13 9.3 48.8 71 4.4 39.9
11:05 1022 30.18 851 25.13 9.3 48.8 70 4.1 39.4
11:10 1022 30.18 851 25.13 9.4 48.9 71 4.5 40.1
11:15 1022 30.18 852 25.16 9.4 48.8 70 4.3 39.7
11:20 1022 30.18 852 25.16 9.1 48.3 71 4.2 39.6
11:25 1022 30.18 852 25.16 9 48.3 72 4.4 39.9
11:30 1022 30.18 852 25.16 9.1 48.4 74 4.8 40.6
11:35 1022 30.18 852 25.16 9.2 48.6 72 4.5 40.2
11:40 1023 30.21 852 25.16 9.1 48.5 73 4.5 40.1
11:45 1023 30.21 852 25.16 9.2 48.6 73 4.7 40.4
11:50 1023 30.21 852 25.16 9.2 48.5 73 4.7 40.4
11:55 1023 30.21 852 25.16 8.9 48 73 4.4 39.9
12:00 1023 30.21 852 25.16 8.8 47.8 77 5 41
12:05 1023 30.21 852 25.16 8.9 48 75 4.8 40.6
12:10 1023 30.21 852 25.16 8.8 47.9 75 4.6 40.3
12:15 1023 30.21 852 25.16 8.8 47.8 75 4.5 40.2
12:20 1023 30.21 852 25.16 8.9 48 76 4.8 40.7
12:25 1023 30.21 852 25.16 8.9 47.9 76 4.9 40.7
12:30 1023 30.21 852 25.16 8.9 48 74 4.5 40.2
12:35 1023 30.21 852 25.16 8.9 47.9 75 4.7 40.4
12:40 1023 30.21 852 25.16 8.7 47.7 77 4.9 40.8
12:45 1023 30.21 852 25.16 8.7 47.6 77 4.8 40.7
12:50 1023 30.21 852 25.16 8.6 47.4 77 4.9 40.8
12:55 1023 30.21 852 25.16 8.6 47.6 78 5 40.9
13:00 1023 30.21 852 25.16 8.6 47.5 78 5 41
13:05 1023 30.21 852 25.16 8.6 47.5 77 4.9 40.8
13:10 1023 30.21 852 25.16 8.6 47.5 78 5.1 41.1
13:15 1023 30.21 852 25.16 8.5 47.3 80 5.2 41.4
13:20 1023 30.21 852 25.16 8.4 47.1 82 5.4 41.8
13:25 1023 30.21 852 25.16 8.5 47.3 79 5.1 41.2
13:30 1023 30.21 852 25.16 8.3 47 79 5 40.9
13:35 1023 30.21 852 25.16 8.3 46.9 81 5.2 41.3
13:40 1023 30.21 852 25.16 8.3 46.9 82 5.4 41.8
13:45 1023 30.21 852 25.16 8.4 47.1 80 5.2 41.4
13:50 1023 30.21 852 25.16 8.3 46.9 82 5.3 41.6
13:55 1023 30.21 852 25.16 8.1 46.7 82 5.3 41.6
14:00 1023 30.21 852 25.16 8.3 46.9 82 5.4 41.8
14:05 1023 30.21 853 25.19 8.4 47 81 5.4 41.7
14:10 1023 30.21 853 25.19 8.5 47.3 82 5.6 42.1
14:15 1023 30.21 853 25.19 8.6 47.6 81 5.6 42.1
14:20 1023 30.21 853 25.19 8.6 47.4 82 5.6 42.1
14:25 1023 30.21 853 25.19 8.5 47.3 81 5.4 41.7
14:30 1023 30.21 853 25.19 8.3 46.9 81 5.2 41.4
14:35 1023 30.21 853 25.19 8.2 46.8 81 5.1 41.3
14:40 1023 30.21 853 25.19 8.1 46.6 82 5.2 41.4
14:45 1024 30.24 853 25.19 8.3 46.9 79 4.8 40.7
14:50 1024 30.24 853 25.19 8.3 47 79 4.9 40.7
14:55 1024 30.24 853 25.19 8.3 47 79 4.9 40.9
15:00 1024 30.24 853 25.19 8.4 47.1 79 4.9 40.8
15:05 1024 30.24 853 25.19 8.5 47.3 77 4.7 40.4
15:10 1024 30.24 853 25.19 8.5 47.2 80 5.2 41.4
15:15 1024 30.24 853 25.19 8.6 47.6 75 4.5 40.1
15:20 1024 30.24 853 25.19 8.7 47.7 73 4.2 39.6
15:25 1024 30.24 853 25.19 8.7 47.6 75 4.5 40
15:30 1024 30.24 853 25.19 8.7 47.6 76 4.6 40.3
15:35 1024 30.24 853 25.19 8.9 48 73 4.3 39.8
15:40 1024 30.24 853 25.19 8.8 47.8 75 4.6 40.2
15:45 1024 30.24 853 25.19 8.8 47.8 75 4.6 40.4
15:50 1024 30.24 853 25.19 8.9 48 74 4.5 40.1
15:55 1024 30.24 853 25.19 8.9 48 74 4.5 40.2
16:00 1024 30.24 853 25.19 9 48.1 75 4.7 40.5
16:05 1024 30.24 853 25.19 8.9 48 73 4.3 39.8
16:10 1024 30.24 853 25.19 8.8 47.9 75 4.7 40.4
16:15 1024 30.24 853 25.19 9.1 48.4 73 4.6 40.3
16:20 1024 30.24 853 25.19 9.2 48.5 73 4.6 40.4
16:25 1024 30.24 853 25.19 9.2 48.6 71 4.2 39.5
16:30 1024 30.24 854 25.22 9.1 48.4 72 4.3 39.7
16:35 1024 30.24 854 25.22 9.3 48.7 73 4.6 40.3
16:40 1024 30.24 854 25.22 9.4 48.8 71 4.5 40
16:45 1024 30.24 854 25.22 9.3 48.8 71 4.3 39.8
16:50 1024 30.24 854 25.22 9.4 48.8 73 4.7 40.5
16:55 1024 30.24 854 25.22 9.4 48.8 71 4.5 40
17:00 1025 30.27 854 25.22 9.2 48.5 72 4.4 40
17:05 1025 30.27 854 25.22 9.1 48.3 73 4.4 40
17:10 1025 30.27 854 25.22 9 48.2 73 4.4 40
17:15 1025 30.27 854 25.22 9.1 48.3 74 4.6 40.3
17:20 1025 30.27 854 25.22 9.1 48.3 73 4.5 40.1
17:25 1025 30.27 854 25.22 9 48.2 72 4.3 39.8
17:30 1025 30.27 854 25.22 8.9 48 73 4.4 39.9
17:35 1025 30.27 854 25.22 8.8 47.9 74 4.4 40
17:40 1025 30.27 854 25.22 8.7 47.7 74 4.4 40
17:45 1025 30.27 854 25.22 8.7 47.7 75 4.6 40.2
17:50 1025 30.27 854 25.22 8.7 47.7 75 4.6 40.3
17:55 1025 30.27 854 25.22 8.7 47.6 77 4.8 40.7
18:00 1025 30.27 854 25.22 8.7 47.6 78 5 41
18:05 1025 30.27 854 25.22 8.6 47.4 78 4.9 40.9
18:10 1025 30.27 854 25.22 8.5 47.4 76 4.6 40.3
18:15 1025 30.27 854 25.22 8.6 47.4 77 4.8 40.7
18:20 1025 30.27 854 25.22 8.6 47.5 79 5.1 41.2
18:25 1025 30.27 854 25.22 8.5 47.3 80 5.3 41.5
18:30 1025 30.27 854 25.22 8.2 46.8 82 5.4 41.8
18:35 1025 30.27 854 25.22 7.8 46 84 5.3 41.6
18:40 1025 30.27 854 25.22 7.6 45.7 85 5.2 41.3
18:45 1025 30.27 854 25.22 7.6 45.7 85 5.2 41.3
18:50 1025 30.27 854 25.22 7.6 45.6 86 5.3 41.5
18:55 1025 30.27 855 25.25 7.4 45.4 87 5.3 41.6
19:00 1025 30.27 855 25.25 7.3 45.1 87 5.3 41.6
19:05 1025 30.27 855 25.25 7.2 44.9 87 5.2 41.4
19:10 1025 30.27 855 25.25 7.2 44.9 87 5.2 41.4
19:15 1025 30.27 855 25.25 7.2 45 87 5.2 41.4
19:20 1026 30.3 855 25.25 7.3 45.1 87 5.2 41.4
19:25 1026 30.3 855 25.25 7.4 45.3 85 5.1 41.1
19:30 1026 30.3 855 25.25 7.4 45.4 85 5.1 41.2
19:35 1026 30.3 855 25.25 7.4 45.3 85 5 40.9
19:40 1026 30.3 855 25.25 7.4 45.4 84 4.9 40.9
19:45 1026 30.3 855 25.25 7.4 45.4 84 4.9 40.8
19:50 1026 30.3 855 25.25 7.4 45.4 83 4.8 40.6
19:55 1026 30.3 855 25.25 7.4 45.3 84 4.8 40.7
20:00 1026 30.3 855 25.25 7.2 44.9 86 5 41
20:05 1026 30.3 855 25.25 6.8 44.2 88 4.9 40.8
20:10 1026 30.3 855 25.25 6.6 43.9 88 4.8 40.7
20:15 1026 30.3 855 25.25 6.4 43.6 89 4.8 40.6
20:20 1026 30.3 855 25.25 6.4 43.5 89 4.7 40.4
20:25 1026 30.3 855 25.25 6.4 43.4 89 4.6 40.3
20:30 1026 30.3 855 25.25 6.5 43.7 88 4.6 40.3
20:35 1026 30.3 855 25.25 6.4 43.5 88 4.5 40.1
20:40 1026 30.3 855 25.25 6.4 43.6 87 4.4 39.9
20:45 1026 30.3 855 25.25 6.4 43.5 87 4.3 39.8
20:50 1026 30.3 855 25.25 6.2 43.2 87 4.2 39.5
20:55 1026 30.3 855 25.25 6.3 43.3 86 4.1 39.3
21:00 1026 30.3 855 25.25 6.3 43.3 86 4.1 39.3
21:05 1026 30.3 855 25.25 6.3 43.3 86 4.1 39.3
21:10 1026 30.3 855 25.25 6.2 43.1 86 4.1 39.4
21:15 1025 30.27 855 25.25 6.1 42.9 86 4 39.1
21:20 1026 30.3 855 25.25 5.9 42.5 87 3.9 39.1
21:25 1026 30.3 855 25.25 5.4 41.8 89 3.7 38.7
21:30 1026 30.3 855 25.25 5.5 41.9 87 3.4 38.2
21:35 1026 30.3 855 25.25 5.4 41.7 87 3.4 38.2
21:40 1026 30.3 855 25.25 5.3 41.5 88 3.5 38.4
21:45 1025 30.27 855 25.25 5.2 41.4 88 3.5 38.2
21:50 1025 30.27 855 25.25 5 41.1 87 3.1 37.6
21:55 1026 30.3 855 25.25 4.8 40.7 87 2.8 37.1
22:00 1026 30.3 855 25.25 4.7 40.4 86 2.6 36.7
22:05 1026 30.3 855 25.25 4.5 40.1 86 2.4 36.4
22:10 1026 30.3 855 25.25 4.3 39.8 87 2.3 36.2
22:15 1026 30.3 855 25.25 4.3 39.7 87 2.3 36.1
22:20 1026 30.3 855 25.25 4.4 39.8 86 2.3 36.1
22:25 1026 30.3 855 25.25 4.5 40.1 86 2.4 36.3
22:30 1026 30.3 855 25.25 4.7 40.4 85 2.4 36.3
22:35 1026 30.3 855 25.25 4.7 40.5 85 2.4 36.3
22:40 1026 30.3 855 25.25 4.8 40.6 85 2.4 36.3
22:45 1026 30.3 855 25.25 4.9 40.7 84 2.4 36.3
22:50 1026 30.3 855 25.25 4.8 40.6 85 2.4 36.4
22:55 1026 30.3 855 25.25 4.7 40.5 85 2.5 36.5
23:00 1026 30.3 855 25.25 5 41.1 84 2.5 36.6
23:05 1026 30.3 855 25.25 4.9 40.9 83 2.4 36.2
23:10 1026 30.3 855 25.25 4.7 40.5 84 2.3 36.1
23:15 1026 30.3 855 25.25 4.6 40.3 85 2.4 36.2
23:20 1026 30.3 855 25.25 4.4 39.9 86 2.3 36.1
23:25 1026 30.3 855 25.25 4.3 39.7 87 2.3 36.1
23:30 1026 30.3 855 25.25 4.5 40.1 85 2.1 35.8
23:35 1026 30.3 855 25.25 4.5 40.1 84 2 35.7
23:40 1026 30.3 855 25.25 4.5 40.1 85 2.1 35.8
23:45 1026 30.3 855 25.25 4.5 40.1 86 2.3 36.1
23:50 1026 30.3 855 25.25 4.6 40.2 84 2.2 35.9
23:55 1026 30.3 855 25.25 4.5 40.2 84 2.1 35.7
24:00 1026 30.3 855 25.25 4.6 40.3 83 1.9 35.5